createdAt,value
2022-08-03T00:01:28.067Z,1.98
2022-08-03T00:03:54.466Z,1.40
2022-08-03T00:06:20.790Z,2.20
2022-08-03T00:08:47.121Z,1.77
2022-08-03T00:11:13.474Z,1.85
2022-08-03T00:13:39.973Z,1.77
2022-08-03T00:16:06.324Z,2.97
2022-08-03T00:18:32.688Z,1.63
2022-08-03T00:20:59.034Z,1.85
2022-08-03T00:23:25.412Z,2.17
2022-08-03T00:25:51.758Z,1.85
2022-08-03T00:28:18.163Z,2.00
2022-08-03T00:30:44.814Z,2.33
2022-08-03T00:33:11.379Z,1.88
2022-08-03T00:35:50.131Z,1.73
2022-08-03T00:38:16.862Z,1.60
2022-08-03T00:40:43.207Z,1.70
2022-08-03T00:43:10.558Z,2.35
2022-08-03T00:45:38.713Z,2.55
2022-08-03T00:48:05.742Z,2.22
2022-08-03T00:50:37.263Z,2.05
2022-08-03T00:53:05.030Z,2.33
2022-08-03T00:55:31.526Z,1.60
2022-08-03T00:57:59.462Z,2.40
2022-08-03T01:00:26.932Z,2.10
2022-08-03T01:02:53.517Z,1.73
2022-08-03T01:05:21.163Z,2.47
2022-08-03T01:08:06.035Z,2.50
2022-08-03T01:10:37.128Z,2.20
2022-08-03T01:13:13.921Z,2.28
2022-08-03T01:15:57.794Z,2.53
2022-08-03T01:18:32.296Z,2.10
2022-08-03T01:20:59.432Z,2.83
2022-08-03T01:23:38.127Z,2.25
2022-08-03T01:26:13.838Z,2.17
2022-08-03T01:28:42.931Z,3.58
2022-08-03T01:31:11.399Z,2.42
2022-08-03T01:33:39.972Z,2.13
2022-08-03T01:36:21.998Z,2.20
2022-08-03T01:38:50.412Z,2.08
2022-08-03T01:41:24.938Z,2.60
2022-08-03T01:43:55.117Z,2.22
2022-08-03T01:46:40.416Z,2.95
2022-08-03T01:49:14.719Z,2.63
2022-08-03T01:51:57.817Z,2.80
2022-08-03T01:54:29.718Z,2.58
2022-08-03T01:56:57.508Z,2.25
2022-08-03T01:59:25.783Z,2.20
2022-08-03T02:02:27.823Z,2.25
2022-08-03T02:04:41.083Z,3.33
2022-08-03T02:07:07.915Z,2.97
2022-08-03T02:09:34.745Z,2.40
2022-08-03T02:12:01.443Z,4.35
2022-08-03T02:14:28.152Z,2.63
2022-08-03T02:16:55.053Z,2.50
2022-08-03T02:19:22.066Z,3.08
2022-08-03T02:21:57.494Z,2.78
2022-08-03T02:24:27.818Z,2.53
2022-08-03T02:26:55.528Z,3.33
2022-08-03T02:29:39.054Z,2.72
2022-08-03T02:32:09.726Z,2.75
2022-08-03T02:34:36.860Z,2.70
2022-08-03T02:37:04.382Z,2.92
2022-08-03T02:39:32.149Z,3.20
2022-08-03T02:42:02.313Z,4.05
2022-08-03T02:44:32.566Z,3.50
2022-08-03T02:47:01.869Z,2.85
2022-08-03T02:49:41.062Z,2.88
2022-08-03T02:52:15.738Z,3.08
2022-08-03T02:54:44.143Z,3.47
2022-08-03T02:57:11.341Z,3.17
2022-08-03T02:59:39.092Z,3.60
2022-08-03T03:02:05.782Z,2.95
2022-08-03T03:04:33.367Z,3.75
2022-08-03T03:07:00.081Z,3.17
2022-08-03T03:09:40.446Z,2.92
2022-08-03T03:12:10.361Z,3.10
2022-08-03T03:14:37.244Z,3.45
2022-08-03T03:17:04.064Z,3.15
2022-08-03T03:19:32.372Z,3.28
2022-08-03T03:22:00.210Z,3.15
2022-08-03T03:24:27.299Z,3.33
2022-08-03T03:26:54.116Z,3.83
2022-08-03T03:29:21.180Z,3.85
2022-08-03T03:31:47.947Z,3.70
2022-08-03T03:34:14.685Z,3.17
2022-08-03T03:36:41.114Z,3.28
2022-08-03T03:39:15.636Z,3.17
2022-08-03T03:41:43.235Z,3.20
2022-08-03T03:44:09.690Z,4.10
2022-08-03T03:46:36.879Z,3.53
2022-08-03T03:49:03.432Z,3.83
2022-08-03T03:51:30.513Z,3.45
2022-08-03T03:53:57.800Z,4.25
2022-08-03T03:56:24.451Z,3.33
2022-08-03T03:58:50.815Z,4.15
2022-08-03T04:01:17.578Z,3.17
2022-08-03T04:03:43.981Z,3.40
2022-08-03T04:06:28.842Z,3.90
2022-08-03T04:09:13.615Z,3.67
2022-08-03T04:11:41.839Z,3.60
2022-08-03T04:14:10.986Z,3.55
2022-08-03T04:16:43.969Z,3.25
2022-08-03T04:19:12.455Z,3.35
2022-08-03T04:21:40.989Z,3.60
2022-08-03T04:24:09.433Z,3.72
2022-08-03T04:26:37.168Z,3.25
2022-08-03T04:29:04.705Z,3.33
2022-08-03T04:31:31.287Z,3.35
2022-08-03T04:33:57.987Z,3.70
2022-08-03T04:36:26.452Z,3.38
2022-08-03T04:38:55.827Z,4.25
2022-08-03T04:41:24.702Z,3.25
2022-08-03T04:43:51.749Z,3.15
2022-08-03T04:46:19.093Z,4.28
2022-08-03T04:48:46.383Z,4.00
2022-08-03T04:51:13.158Z,3.45
2022-08-03T04:53:39.607Z,3.45
2022-08-03T04:56:06.265Z,4.28
2022-08-03T04:58:32.935Z,4.03
2022-08-03T05:00:59.329Z,4.22
2022-08-03T05:03:25.717Z,4.15
2022-08-03T05:05:53.081Z,4.03
2022-08-03T05:08:28.555Z,2.45
2022-08-03T05:10:55.244Z,3.28
2022-08-03T05:13:21.592Z,2.90
2022-08-03T05:15:47.966Z,3.47
2022-08-03T05:18:14.552Z,2.83
2022-08-03T05:20:41.053Z,2.38
2022-08-03T05:23:07.413Z,4.07
2022-08-03T05:25:34.747Z,3.03
2022-08-03T05:28:01.339Z,3.63
2022-08-03T05:30:34.017Z,3.40
2022-08-03T05:33:01.487Z,2.90
2022-08-03T05:36:00.461Z,3.47
2022-08-03T05:38:15.143Z,2.97
2022-08-03T05:40:56.853Z,2.65
2022-08-03T05:43:24.349Z,3.38
2022-08-03T05:46:12.116Z,4.05
2022-08-03T05:48:37.198Z,4.05
2022-08-03T05:51:05.232Z,3.55
2022-08-03T05:53:33.378Z,3.50
2022-08-03T05:56:03.471Z,3.63
2022-08-03T05:58:39.825Z,3.42
2022-08-03T06:01:06.208Z,2.75
2022-08-03T06:03:32.627Z,3.15
2022-08-03T06:06:00.085Z,4.03
2022-08-03T06:08:27.057Z,3.45
2022-08-03T06:10:53.416Z,3.22
2022-08-03T06:13:19.918Z,3.95
2022-08-03T06:15:46.337Z,4.45
2022-08-03T06:18:12.742Z,3.30
2022-08-03T06:20:39.119Z,3.80
2022-08-03T06:23:06.386Z,4.13
2022-08-03T06:25:33.880Z,3.60
2022-08-03T06:28:00.418Z,3.22
2022-08-03T06:30:26.865Z,3.80
2022-08-03T06:32:53.279Z,3.63
2022-08-03T06:35:19.965Z,3.78
2022-08-03T06:37:48.659Z,3.20
2022-08-03T06:40:16.139Z,4.18
2022-08-03T06:42:50.952Z,4.18
2022-08-03T06:45:17.946Z,2.92
2022-08-03T06:47:44.610Z,3.78
2022-08-03T06:50:16.945Z,4.00
2022-08-03T06:52:44.374Z,3.55
2022-08-03T06:55:11.440Z,3.47
2022-08-03T06:57:37.796Z,3.88
2022-08-03T07:00:08.225Z,4.30
2022-08-03T07:02:38.586Z,4.00
2022-08-03T07:05:05.725Z,4.53
2022-08-03T07:07:32.649Z,4.00
2022-08-03T07:09:59.092Z,3.40
2022-08-03T07:12:29.263Z,3.88
2022-08-03T07:15:00.279Z,4.50
2022-08-03T07:17:27.804Z,3.70
2022-08-03T07:19:54.139Z,4.40
2022-08-03T07:22:21.516Z,3.85
2022-08-03T07:24:48.496Z,3.75
2022-08-03T07:27:15.732Z,4.60
2022-08-03T07:29:42.104Z,5.00
2022-08-03T07:32:08.445Z,4.32
2022-08-03T07:34:35.521Z,4.07
2022-08-03T07:37:01.888Z,3.95
2022-08-03T07:39:28.282Z,3.83
2022-08-03T07:41:54.706Z,4.15
2022-08-03T07:44:21.071Z,4.15
2022-08-03T07:46:47.596Z,3.90
2022-08-03T07:49:14.007Z,5.22
2022-08-03T07:51:40.428Z,3.80
2022-08-03T07:54:07.666Z,3.20
2022-08-03T07:56:34.032Z,4.00
2022-08-03T07:59:00.718Z,5.43
2022-08-03T08:01:27.312Z,4.10
2022-08-03T08:03:53.893Z,3.67
2022-08-03T08:06:20.859Z,3.80
2022-08-03T08:08:47.468Z,3.70
2022-08-03T08:11:13.868Z,3.55
2022-08-03T08:13:40.307Z,5.30
2022-08-03T08:16:06.763Z,4.57
2022-08-03T08:18:34.352Z,3.97
2022-08-03T08:21:01.626Z,3.83
2022-08-03T08:23:41.643Z,3.88
2022-08-03T08:26:09.434Z,4.05
2022-08-03T08:28:36.886Z,3.50
2022-08-03T08:31:03.371Z,4.60
2022-08-03T08:36:16.213Z,4.50
2022-08-03T08:38:44.406Z,4.35
2022-08-03T08:41:11.191Z,4.32
2022-08-03T08:43:37.603Z,5.47
2022-08-03T08:46:05.468Z,4.45
2022-08-03T08:48:31.972Z,3.88
2022-08-03T08:50:59.528Z,4.85
2022-08-03T08:53:27.602Z,4.35
2022-08-03T08:55:59.665Z,4.82
2022-08-03T08:58:28.927Z,4.32
2022-08-03T09:00:55.945Z,5.25
2022-08-03T09:03:29.613Z,4.25
2022-08-03T09:05:58.024Z,4.20
2022-08-03T09:08:25.957Z,5.15
2022-08-03T09:10:52.315Z,5.15
2022-08-03T09:13:18.999Z,5.13
2022-08-03T09:16:00.747Z,4.80
2022-08-03T09:18:32.865Z,4.80
2022-08-03T09:21:30.493Z,5.28
2022-08-03T09:24:04.175Z,4.70
2022-08-03T09:26:32.699Z,5.28
2022-08-03T09:29:06.785Z,4.97
2022-08-03T09:31:39.695Z,4.25
2022-08-03T09:34:10.842Z,4.95
2022-08-03T09:36:38.939Z,4.82
2022-08-03T09:39:11.178Z,4.53
2022-08-03T09:41:38.421Z,4.80
2022-08-03T09:44:04.858Z,4.28
2022-08-03T09:46:34.471Z,4.28
2022-08-03T09:49:11.722Z,4.63
2022-08-03T09:52:32.933Z,4.05
2022-08-03T09:54:29.311Z,4.35
2022-08-03T09:56:56.092Z,3.78
2022-08-03T09:59:33.361Z,3.58
2022-08-03T10:02:00.412Z,5.45
2022-08-03T10:04:26.948Z,4.10
2022-08-03T10:07:02.139Z,3.83
2022-08-03T10:09:28.506Z,4.35
2022-08-03T10:11:54.900Z,4.63
2022-08-03T10:14:22.736Z,5.00
2022-08-03T10:16:49.636Z,3.85
2022-08-03T10:19:16.510Z,4.53
2022-08-03T10:21:47.688Z,3.95
2022-08-03T10:24:14.836Z,3.95
2022-08-03T10:26:50.019Z,4.00
2022-08-03T10:29:22.397Z,3.63
2022-08-03T10:31:55.904Z,3.72
2022-08-03T10:34:27.066Z,3.97
2022-08-03T10:36:56.893Z,4.03
2022-08-03T10:39:24.198Z,3.85
2022-08-03T10:41:51.407Z,3.33
2022-08-03T10:44:20.498Z,3.80
2022-08-03T10:46:48.286Z,4.18
2022-08-03T10:49:15.291Z,3.92
2022-08-03T10:51:42.546Z,3.13
2022-08-03T10:54:28.814Z,3.85
2022-08-03T10:57:14.689Z,3.28
2022-08-03T10:59:46.956Z,3.15
2022-08-03T11:02:14.251Z,2.88
2022-08-03T11:04:41.619Z,3.65
2022-08-03T11:07:23.863Z,3.50
2022-08-03T11:09:51.261Z,3.92
2022-08-03T11:12:27.886Z,4.18
2022-08-03T11:15:03.164Z,3.20
2022-08-03T11:17:29.939Z,3.45
2022-08-03T11:19:57.253Z,2.97
2022-08-03T11:22:25.075Z,3.25
2022-08-03T11:24:53.774Z,4.00
2022-08-03T11:27:22.678Z,2.50
2022-08-03T11:29:56.560Z,3.15
2022-08-03T11:32:37.877Z,2.88
2022-08-03T11:35:07.664Z,2.67
2022-08-03T11:37:34.043Z,2.70
2022-08-03T11:40:02.750Z,2.60
2022-08-03T11:42:35.350Z,3.47
2022-08-03T11:45:01.697Z,3.10
2022-08-03T11:47:29.197Z,3.05
2022-08-03T11:49:58.918Z,3.33
2022-08-03T11:52:26.981Z,3.20
2022-08-03T11:54:56.758Z,2.85
2022-08-03T11:59:19.156Z,3.28
2022-08-03T12:00:22.707Z,2.40
2022-08-03T12:02:55.810Z,3.20
2022-08-03T12:05:32.387Z,2.85
2022-08-03T12:08:04.759Z,3.20
2022-08-03T12:10:32.895Z,3.10
2022-08-03T12:13:00.427Z,2.95
2022-08-03T12:15:27.851Z,2.78
2022-08-03T12:17:57.707Z,2.90
2022-08-03T12:20:34.783Z,3.35
2022-08-03T12:23:05.242Z,2.63
2022-08-03T12:25:38.471Z,2.80
2022-08-03T12:28:35.837Z,3.28
2022-08-03T12:31:01.404Z,2.85
2022-08-03T12:33:28.201Z,2.97
2022-08-03T12:36:05.237Z,3.22
2022-08-03T12:38:32.623Z,2.22
2022-08-03T12:41:06.868Z,2.17
2022-08-03T12:43:36.711Z,3.10
2022-08-03T12:46:08.893Z,2.85
2022-08-03T12:48:36.381Z,2.65
2022-08-03T12:51:09.799Z,2.30
2022-08-03T12:53:36.598Z,2.38
2022-08-03T12:56:06.453Z,2.35
2022-08-03T12:58:34.674Z,2.17
2022-08-03T13:01:05.156Z,2.05
2022-08-03T13:03:42.252Z,2.60
2022-08-03T13:06:13.669Z,2.08
2022-08-03T13:08:40.560Z,2.27
2022-08-03T13:11:50.555Z,2.33
2022-08-03T13:14:10.473Z,2.22
2022-08-03T13:16:43.165Z,2.58
2022-08-03T13:19:15.502Z,2.10
2022-08-03T13:21:53.887Z,2.17
2022-08-03T13:24:31.698Z,2.15
2022-08-03T13:26:58.560Z,2.15
2022-08-03T13:29:24.890Z,2.28
2022-08-03T13:31:51.477Z,2.42
2022-08-03T13:34:23.187Z,2.88
2022-08-03T13:37:08.524Z,2.22
2022-08-03T13:39:57.265Z,2.80
2022-08-03T13:42:22.576Z,3.38
2022-08-03T13:44:49.127Z,2.33
2022-08-03T13:47:15.483Z,2.72
2022-08-03T13:49:42.057Z,2.20
2022-08-03T13:52:21.105Z,2.03
2022-08-03T13:54:47.599Z,2.35
2022-08-03T13:58:03.677Z,2.58
2022-08-03T14:00:02.655Z,2.40
2022-08-03T14:02:30.622Z,2.03
2022-08-03T14:04:57.095Z,1.80
2022-08-03T14:07:23.507Z,1.95
2022-08-03T14:09:49.866Z,2.20
2022-08-03T14:12:16.202Z,2.30
2022-08-03T14:14:42.549Z,2.38
2022-08-03T14:17:08.923Z,2.33
2022-08-03T14:19:40.565Z,2.22
2022-08-03T14:22:19.274Z,2.08
2022-08-03T14:24:46.535Z,1.50
2022-08-03T14:27:12.887Z,1.80
2022-08-03T14:29:39.250Z,2.50
2022-08-03T14:32:11.399Z,1.95
2022-08-03T14:34:39.209Z,1.58
2022-08-03T14:37:05.845Z,1.85
2022-08-03T14:42:20.180Z,1.90
2022-08-03T14:44:46.692Z,2.10
2022-08-03T14:47:13.246Z,1.65
2022-08-03T14:50:31.107Z,1.63
2022-08-03T14:52:26.038Z,1.95
2022-08-03T14:54:52.430Z,1.58
2022-08-03T14:57:19.029Z,1.98
2022-08-03T14:59:55.714Z,2.50
2022-08-03T15:02:24.449Z,1.45
2022-08-03T15:04:51.038Z,1.95
2022-08-03T15:07:17.479Z,1.70
2022-08-03T15:09:44.043Z,1.92
2022-08-03T15:12:10.505Z,1.73
2022-08-03T15:14:37.802Z,1.60
2022-08-03T15:17:04.499Z,1.70
2022-08-03T15:20:01.408Z,1.98
2022-08-03T15:22:20.660Z,1.58
2022-08-03T15:24:51.220Z,2.17
2022-08-03T15:27:17.757Z,1.60
2022-08-03T15:30:06.207Z,2.10
2022-08-03T15:32:30.528Z,1.52
2022-08-03T15:34:56.869Z,1.98
2022-08-03T15:37:25.571Z,1.80
2022-08-03T15:39:58.812Z,1.60
2022-08-03T15:42:27.542Z,1.90
2022-08-03T15:44:53.910Z,1.98
2022-08-03T15:47:22.698Z,1.70
2022-08-03T15:49:49.315Z,1.92
2022-08-03T15:52:15.731Z,1.83
2022-08-03T15:54:42.125Z,1.60
2022-08-03T15:57:08.570Z,1.75
2022-08-03T15:59:35.002Z,1.67
2022-08-03T16:02:01.624Z,1.45
2022-08-03T16:04:28.014Z,1.75
2022-08-03T16:06:54.392Z,1.60
2022-08-03T16:09:24.262Z,1.90
2022-08-03T16:12:11.730Z,1.45
2022-08-03T16:14:52.955Z,1.77
2022-08-03T16:17:20.304Z,2.15
2022-08-03T16:19:46.920Z,1.50
2022-08-03T16:22:13.403Z,1.77
2022-08-03T16:24:40.948Z,1.58
2022-08-03T16:27:07.910Z,1.63
2022-08-03T16:29:44.137Z,1.50
2022-08-03T16:32:10.606Z,1.13
2022-08-03T16:34:37.715Z,1.60
2022-08-03T16:37:35.674Z,2.10
2022-08-03T16:39:50.926Z,1.45
2022-08-03T16:42:17.338Z,1.30
2022-08-03T16:44:43.861Z,1.50
2022-08-03T16:47:10.206Z,2.00
2022-08-03T16:49:55.030Z,1.90
2022-08-03T16:52:23.509Z,1.45
2022-08-03T16:54:53.834Z,1.90
2022-08-03T16:57:56.280Z,1.70
2022-08-03T17:00:08.498Z,1.80
2022-08-03T17:02:35.377Z,1.77
2022-08-03T17:05:02.926Z,2.05
2022-08-03T17:07:30.325Z,1.73
2022-08-03T17:09:57.156Z,1.70
2022-08-03T17:12:25.958Z,1.60
2022-08-03T17:14:53.765Z,1.38
2022-08-03T17:17:24.354Z,1.70
2022-08-03T17:19:59.864Z,2.22
2022-08-03T17:22:32.021Z,1.60
2022-08-03T17:25:03.788Z,1.60
2022-08-03T17:28:49.247Z,2.70
2022-08-03T17:30:21.615Z,3.00
2022-08-03T17:32:56.686Z,1.40
2022-08-03T17:35:24.587Z,2.50
2022-08-03T17:38:03.822Z,2.08
2022-08-03T17:40:31.569Z,1.77
2022-08-03T17:42:59.173Z,2.10
2022-08-03T17:45:25.624Z,1.60
2022-08-03T17:48:11.959Z,1.80
2022-08-03T17:50:52.949Z,1.98
2022-08-03T17:53:23.927Z,1.80
2022-08-03T17:58:30.411Z,1.92
2022-08-03T18:01:57.805Z,1.70
2022-08-03T18:04:04.412Z,1.52
2022-08-03T18:06:38.060Z,1.77
2022-08-03T18:10:04.287Z,1.90
2022-08-03T18:12:13.134Z,2.00
2022-08-03T18:14:57.681Z,1.70
2022-08-03T18:17:55.063Z,1.90
2022-08-03T18:20:32.695Z,1.55
2022-08-03T18:23:05.780Z,1.60
2022-08-03T18:25:45.431Z,2.03
2022-08-03T18:28:16.338Z,1.60
2022-08-03T18:30:54.166Z,1.45
2022-08-03T18:34:19.337Z,1.52
2022-08-03T18:36:18.313Z,1.80
2022-08-03T18:38:50.957Z,1.55
2022-08-03T18:41:31.767Z,1.80
2022-08-03T18:44:09.019Z,1.70
2022-08-03T18:47:06.841Z,1.42
2022-08-03T18:49:43.187Z,1.63
2022-08-03T18:52:30.898Z,2.20
2022-08-03T18:55:20.584Z,1.75
2022-08-03T18:58:15.767Z,1.55
2022-08-03T19:00:58.474Z,1.77
2022-08-03T19:03:25.287Z,2.08
2022-08-03T19:09:04.575Z,1.45
2022-08-03T19:12:11.161Z,1.65
2022-08-03T19:14:28.620Z,1.77
2022-08-03T19:17:04.743Z,1.30
2022-08-03T19:19:44.131Z,2.10
2022-08-03T19:22:11.695Z,1.80
2022-08-03T19:24:39.875Z,1.92
2022-08-03T19:27:10.736Z,2.10
2022-08-03T19:29:59.583Z,2.00
2022-08-03T19:32:25.945Z,1.67
2022-08-03T19:34:52.715Z,1.73
2022-08-03T19:37:22.062Z,1.75
2022-08-03T19:39:56.735Z,1.60
2022-08-03T19:42:30.658Z,1.80
2022-08-03T19:45:10.991Z,2.00
2022-08-03T19:47:52.029Z,1.67
2022-08-03T19:50:19.492Z,1.85
2022-08-03T19:52:47.088Z,1.80
2022-08-03T19:55:15.254Z,1.80
2022-08-03T19:57:43.589Z,2.03
2022-08-03T20:00:13.932Z,2.42
2022-08-03T20:02:40.942Z,2.50
2022-08-03T20:05:15.005Z,2.47
2022-08-03T20:07:42.703Z,2.20
2022-08-03T20:10:15.308Z,2.33
2022-08-03T20:12:43.344Z,2.70
2022-08-03T20:15:10.538Z,2.15
2022-08-03T20:17:56.592Z,2.10
2022-08-03T20:20:28.547Z,2.50
2022-08-03T20:22:59.561Z,2.70
2022-08-03T20:25:38.986Z,3.28
2022-08-03T20:28:13.962Z,3.08
2022-08-03T20:30:42.513Z,3.03
2022-08-03T20:33:09.528Z,2.55
2022-08-03T20:35:35.885Z,2.70
2022-08-03T20:38:03.094Z,2.78
2022-08-03T20:40:29.582Z,3.60
2022-08-03T20:42:56.012Z,2.22
2022-08-03T20:48:09.695Z,3.05
2022-08-03T20:50:38.818Z,2.83
2022-08-03T20:53:06.370Z,3.03
2022-08-03T20:55:48.004Z,2.47
2022-08-03T20:58:20.123Z,2.30
2022-08-03T21:00:51.588Z,2.35
2022-08-03T21:03:18.666Z,2.03
2022-08-03T21:05:51.109Z,2.72
2022-08-03T21:08:18.888Z,3.50
2022-08-03T21:10:45.783Z,4.57
2022-08-03T21:13:08.841Z,1.88
2022-08-03T21:13:12.764Z,2.33
2022-08-03T21:13:18.168Z,5.03
2022-08-03T21:16:12.360Z,4.10
2022-08-03T21:18:36.401Z,5.45
2022-08-03T21:21:05.181Z,6.00
2022-08-03T21:23:47.552Z,5.00
2022-08-03T21:26:16.826Z,5.32
2022-08-03T21:28:43.673Z,3.53
2022-08-03T21:31:10.323Z,3.63
2022-08-03T21:33:36.658Z,3.40
2022-08-03T21:36:03.531Z,3.92
2022-08-03T21:38:30.453Z,3.05
2022-08-03T21:40:57.068Z,3.58
2022-08-03T21:43:23.387Z,2.85
2022-08-03T21:45:52.229Z,2.70
2022-08-03T21:48:18.975Z,3.00
2022-08-03T21:50:45.554Z,2.78
2022-08-03T21:53:12.167Z,3.20
2022-08-03T21:55:39.929Z,3.03
2022-08-03T21:58:06.451Z,3.10
2022-08-03T22:00:32.992Z,3.25
2022-08-03T22:03:00.313Z,3.47
2022-08-03T22:05:44.047Z,3.08
2022-08-03T22:08:12.475Z,2.55
2022-08-03T22:10:39.154Z,2.67
2022-08-03T22:13:05.667Z,2.70
2022-08-03T22:15:32.212Z,2.78
2022-08-03T22:17:59.012Z,3.53
2022-08-03T22:20:25.567Z,3.00
2022-08-03T22:22:59.798Z,2.95
2022-08-03T22:25:28.918Z,2.63
2022-08-03T22:27:55.647Z,3.22
2022-08-03T22:30:22.743Z,3.38
2022-08-03T22:32:49.721Z,3.08
2022-08-03T22:35:17.993Z,3.08
2022-08-03T22:37:45.428Z,2.88
2022-08-03T22:40:14.229Z,2.75
2022-08-03T22:42:41.453Z,3.40
2022-08-03T22:45:08.080Z,3.20
2022-08-03T22:47:36.219Z,3.22
2022-08-03T22:50:31.854Z,3.30
2022-08-03T22:52:51.120Z,3.42
2022-08-03T22:55:24.674Z,3.00
2022-08-03T22:57:56.091Z,3.30
2022-08-03T23:00:23.022Z,3.40
2022-08-03T23:02:50.869Z,2.85
2022-08-03T23:06:02.635Z,3.08
2022-08-03T23:08:08.364Z,3.28
2022-08-03T23:10:35.691Z,3.53
2022-08-03T23:13:02.627Z,3.33
2022-08-03T23:15:29.924Z,3.13
2022-08-03T23:17:58.572Z,3.38
2022-08-03T23:20:26.609Z,3.03
2022-08-03T23:22:54.333Z,3.40
2022-08-03T23:25:21.896Z,3.65
2022-08-03T23:27:49.116Z,3.03
2022-08-03T23:30:32.734Z,2.92
2022-08-03T23:33:00.466Z,3.30
2022-08-03T23:36:28.211Z,3.00
2022-08-03T23:38:36.202Z,3.53
2022-08-03T23:41:03.833Z,3.10
2022-08-03T23:43:45.273Z,3.03
2022-08-03T23:46:19.589Z,3.15
2022-08-03T23:48:45.934Z,3.28
2022-08-03T23:51:30.991Z,3.40
2022-08-03T23:54:05.492Z,3.22
2022-08-03T23:56:34.567Z,3.33
2022-08-03T23:59:11.993Z,3.45
